createdAt,value
2016-04-09T00:00:24.086Z,32.23
2016-04-09T00:01:24.026Z,32.14
2016-04-09T00:02:23.982Z,32.14
2016-04-09T00:03:23.937Z,32.14
2016-04-09T00:04:23.909Z,32.14
2016-04-09T00:05:23.880Z,32.23
2016-04-09T00:06:23.817Z,32.23
2016-04-09T00:07:23.742Z,32.14
2016-04-09T00:08:23.698Z,32.14
2016-04-09T00:09:23.639Z,32.14
2016-04-09T00:10:23.595Z,32.14
2016-04-09T00:11:23.566Z,32.14
2016-04-09T00:12:23.522Z,32.14
2016-04-09T00:13:23.493Z,32.14
2016-04-09T00:14:26.436Z,32.04
2016-04-09T00:15:23.358Z,32.04
2016-04-09T00:16:23.330Z,32.14
2016-04-09T00:17:23.269Z,32.14
2016-04-09T00:18:23.428Z,32.04
2016-04-09T00:19:23.165Z,32.14
2016-04-09T00:20:23.152Z,31.95
2016-04-09T00:21:23.077Z,32.04
2016-04-09T00:22:26.052Z,31.95
2016-04-09T00:23:23.005Z,31.95
2016-04-09T00:24:23.179Z,32.03
2016-04-09T00:25:22.901Z,32.04
2016-04-09T00:26:22.871Z,32.04
2016-04-09T00:27:22.812Z,31.95
2016-04-09T00:28:22.752Z,32.04
2016-04-09T00:29:22.739Z,32.14
2016-04-09T00:30:25.666Z,32.14
2016-04-09T00:31:22.619Z,32.04
2016-04-09T00:32:22.575Z,32.04
2016-04-09T00:33:22.500Z,32.14
2016-04-09T00:34:22.470Z,32.14
2016-04-09T00:35:22.427Z,31.85
2016-04-09T00:36:22.367Z,31.85
2016-04-09T00:37:22.323Z,31.84
2016-04-09T00:38:25.297Z,32.14
2016-04-09T00:39:22.219Z,31.75
2016-04-09T00:40:22.175Z,31.85
2016-04-09T00:41:22.146Z,31.95
2016-04-09T00:42:22.086Z,31.64
2016-04-09T00:43:22.042Z,31.85
2016-04-09T00:44:21.983Z,31.75
2016-04-09T00:45:21.939Z,31.85
2016-04-09T00:46:21.895Z,31.93
2016-04-09T00:47:21.835Z,31.85
2016-04-09T00:48:21.806Z,31.84
2016-04-09T00:49:21.761Z,31.84
2016-04-09T00:50:21.718Z,31.95
2016-04-09T00:51:21.658Z,31.66
2016-04-09T00:52:21.629Z,31.64
2016-04-09T00:53:24.587Z,31.66
2016-04-09T00:54:21.524Z,31.64
2016-04-09T00:55:21.481Z,31.74
2016-04-09T00:56:21.437Z,31.75
2016-04-09T00:57:21.376Z,31.74
2016-04-09T00:58:21.630Z,31.84
2016-04-09T00:59:21.288Z,31.64
2016-04-09T01:00:21.229Z,31.64
2016-04-09T01:01:21.185Z,31.64
2016-04-09T01:02:21.140Z,31.64
2016-04-09T01:03:21.284Z,31.54
2016-04-09T01:04:21.083Z,31.56
2016-04-09T01:05:21.008Z,31.66
2016-04-09T01:06:24.263Z,31.84
2016-04-09T01:07:23.903Z,31.74
2016-04-09T01:08:20.859Z,31.64
2016-04-09T01:09:20.799Z,31.75
2016-04-09T01:10:20.755Z,31.64
2016-04-09T01:11:23.727Z,31.56
2016-04-09T01:12:20.667Z,31.66
2016-04-09T01:13:20.623Z,31.75
2016-04-09T01:14:20.579Z,31.74
2016-04-09T01:15:20.519Z,31.66
2016-04-09T01:16:20.491Z,31.74
2016-04-09T01:17:23.446Z,31.74
2016-04-09T01:18:20.386Z,31.66
2016-04-09T01:19:20.327Z,31.75
2016-04-09T01:20:20.282Z,31.66
2016-04-09T01:21:20.223Z,31.75
2016-04-09T01:22:23.179Z,31.74
2016-04-09T01:23:20.150Z,31.74
2016-04-09T01:24:23.091Z,31.64
2016-04-09T01:25:20.062Z,31.75
2016-04-09T01:26:20.002Z,31.75
2016-04-09T01:27:19.957Z,31.66
2016-04-09T01:28:19.913Z,31.64
2016-04-09T01:29:19.885Z,31.66
2016-04-09T01:30:19.809Z,31.66
2016-04-09T01:31:19.765Z,31.64
2016-04-09T01:32:19.705Z,31.66
2016-04-09T01:33:19.739Z,31.84
2016-04-09T01:34:19.617Z,31.64
2016-04-09T01:35:19.589Z,31.64
2016-04-09T01:36:19.529Z,31.64
2016-04-09T01:37:19.679Z,31.54
2016-04-09T01:38:19.415Z,31.54
2016-04-09T01:39:19.387Z,31.56
2016-04-09T01:40:19.529Z,31.66
2016-04-09T01:41:19.282Z,31.54
2016-04-09T01:42:19.254Z,31.64
2016-04-09T01:43:19.209Z,31.64
2016-04-09T01:44:19.134Z,31.54
2016-04-09T01:45:19.120Z,31.45
2016-04-09T01:46:19.045Z,31.54
2016-04-09T01:47:18.986Z,31.64
2016-04-09T01:48:18.942Z,31.56
2016-04-09T01:49:18.898Z,31.54
2016-04-09T01:50:18.854Z,31.26
2016-04-09T01:51:18.825Z,31.45
2016-04-09T01:52:18.765Z,31.35
2016-04-09T01:53:18.736Z,31.35
2016-04-09T01:54:18.661Z,31.35
2016-04-09T01:55:18.633Z,31.26
2016-04-09T01:56:18.572Z,31.26
2016-04-09T01:57:18.513Z,31.35
2016-04-09T01:58:18.468Z,31.26
2016-04-09T01:59:18.424Z,31.26
2016-04-09T02:00:18.396Z,31.27
2016-04-09T02:01:18.352Z,31.35
2016-04-09T02:02:18.277Z,31.35
2016-04-09T02:03:18.248Z,31.16
2016-04-09T02:04:21.204Z,31.26
2016-04-09T02:05:18.159Z,31.35
2016-04-09T02:06:18.115Z,31.26
2016-04-09T02:07:18.055Z,31.18
2016-04-09T02:08:18.011Z,31.26
2016-04-09T02:09:17.951Z,31.16
2016-04-09T02:10:17.922Z,31.26
2016-04-09T02:11:17.878Z,31.16
2016-04-09T02:12:17.803Z,31.16
2016-04-09T02:13:17.775Z,31.08
2016-04-09T02:14:17.714Z,31.16
2016-04-09T02:15:17.671Z,31.07
2016-04-09T02:16:17.626Z,31.26
2016-04-09T02:17:17.582Z,31.26
2016-04-09T02:18:17.523Z,31.16
2016-04-09T02:19:17.494Z,31.16
2016-04-09T02:20:17.434Z,31.16
2016-04-09T02:21:17.389Z,31.07
2016-04-09T02:22:17.330Z,31.26
2016-04-09T02:23:17.302Z,31.16
2016-04-09T02:24:17.258Z,31.26
2016-04-09T02:25:17.198Z,31.07
2016-04-09T02:26:17.138Z,31.18
2016-04-09T02:27:17.094Z,31.16
2016-04-09T02:28:17.066Z,31.16
2016-04-09T02:29:17.005Z,31.16
2016-04-09T02:30:16.961Z,31.26
2016-04-09T02:31:16.901Z,31.26
2016-04-09T02:32:16.857Z,31.16
2016-04-09T02:33:16.812Z,31.16
2016-04-09T02:34:25.802Z,31.16
2016-04-09T02:35:19.724Z,31.16
2016-04-09T02:36:16.679Z,31.37
2016-04-09T02:37:16.635Z,31.16
2016-04-09T02:38:16.576Z,31.18
2016-04-09T02:39:16.532Z,31.16
2016-04-09T02:40:16.488Z,31.18
2016-04-09T02:41:16.491Z,31.16
2016-04-09T02:42:16.384Z,31.16
2016-04-09T02:43:16.559Z,31.26
2016-04-09T02:44:16.342Z,31.26
2016-04-09T02:45:16.267Z,31.26
2016-04-09T02:46:16.192Z,31.16
2016-04-09T02:47:16.162Z,30.97
2016-04-09T02:48:16.103Z,30.97
2016-04-09T02:49:16.059Z,30.97
2016-04-09T02:50:19.000Z,30.97
2016-04-09T02:51:15.955Z,31.26
2016-04-09T02:52:15.942Z,30.87
2016-04-09T02:53:15.867Z,30.97
2016-04-09T02:54:15.822Z,30.87
2016-04-09T02:55:15.778Z,30.97
2016-04-09T02:56:15.733Z,30.97
2016-04-09T02:57:15.674Z,30.87
2016-04-09T02:58:15.630Z,30.97
2016-04-09T02:59:15.569Z,30.97
2016-04-09T03:00:15.542Z,30.97
2016-04-09T03:01:15.482Z,30.97
2016-04-09T03:02:15.438Z,30.87
2016-04-09T03:03:15.471Z,30.97
2016-04-09T03:04:15.349Z,31.07
2016-04-09T03:05:15.305Z,31.07
2016-04-09T03:06:15.260Z,30.97
2016-04-09T03:07:15.201Z,31.07
2016-04-09T03:08:15.157Z,31.07
2016-04-09T03:09:15.128Z,31.07
2016-04-09T03:10:15.053Z,30.78
2016-04-09T03:11:15.009Z,30.87
2016-04-09T03:12:14.964Z,30.78
2016-04-09T03:13:14.920Z,30.78
2016-04-09T03:14:14.876Z,30.87
2016-04-09T03:15:14.832Z,30.78
2016-04-09T03:16:14.788Z,30.87
2016-04-09T03:17:14.743Z,30.87
2016-04-09T03:18:15.043Z,30.87
2016-04-09T03:19:14.623Z,30.78
2016-04-09T03:20:17.595Z,30.87
2016-04-09T03:21:17.551Z,30.78
2016-04-09T03:22:14.491Z,30.68
2016-04-09T03:23:14.463Z,30.97
2016-04-09T03:24:14.402Z,30.87
2016-04-09T03:25:14.358Z,30.87
2016-04-09T03:26:14.314Z,30.68
2016-04-09T03:27:14.270Z,30.68
2016-04-09T03:28:14.211Z,30.68
2016-04-09T03:29:14.166Z,30.78
2016-04-09T03:30:14.122Z,30.79
2016-04-09T03:31:14.078Z,30.78
2016-04-09T03:32:14.018Z,30.78
2016-04-09T03:33:13.958Z,30.58
2016-04-09T03:34:13.930Z,30.49
2016-04-09T03:35:13.885Z,30.4
2016-04-09T03:36:16.827Z,30.68
2016-04-09T03:37:22.797Z,30.58
2016-04-09T03:38:13.722Z,30.78
2016-04-09T03:39:13.897Z,30.87
2016-04-09T03:40:13.634Z,30.87
2016-04-09T03:41:13.590Z,30.87
2016-04-09T03:42:13.748Z,30.68
2016-04-09T03:43:13.501Z,30.87
2016-04-09T03:44:13.473Z,30.87
2016-04-09T03:45:13.397Z,30.78
2016-04-09T03:46:13.368Z,30.68
2016-04-09T03:47:13.323Z,30.7
2016-04-09T03:48:13.436Z,30.78
2016-04-09T03:49:13.220Z,30.78
2016-04-09T03:50:13.161Z,30.87
2016-04-09T03:51:13.101Z,30.87
2016-04-09T03:52:16.087Z,30.78
2016-04-09T03:53:13.231Z,30.78
2016-04-09T03:54:12.983Z,30.7
2016-04-09T03:55:12.924Z,30.58
2016-04-09T03:56:12.880Z,30.78
2016-04-09T03:57:12.835Z,30.58
2016-04-09T03:58:12.775Z,30.78
2016-04-09T03:59:12.730Z,30.78
2016-04-09T04:00:12.702Z,30.58
2016-04-09T04:01:12.627Z,30.87
2016-04-09T04:02:12.599Z,30.58
2016-04-09T04:03:12.555Z,30.78
2016-04-09T04:04:15.527Z,30.68
2016-04-09T04:05:12.451Z,30.78
2016-04-09T04:06:12.407Z,30.87
2016-04-09T04:07:12.363Z,30.87
2016-04-09T04:08:15.318Z,30.58
2016-04-09T04:09:12.258Z,30.68
2016-04-09T04:10:12.229Z,30.49
2016-04-09T04:11:12.170Z,30.58
2016-04-09T04:12:12.126Z,30.58
2016-04-09T04:13:12.082Z,30.68
2016-04-09T04:14:12.022Z,30.6
2016-04-09T04:15:12.024Z,30.68
2016-04-09T04:16:11.934Z,30.49
2016-04-09T04:17:11.889Z,30.68
2016-04-09T04:18:11.704Z,30.58
2016-04-09T04:19:11.801Z,30.49
2016-04-09T04:20:11.741Z,30.58
2016-04-09T04:21:11.697Z,30.68
2016-04-09T04:22:11.652Z,30.58
2016-04-09T04:23:11.592Z,30.3
2016-04-09T04:24:11.564Z,30.58
2016-04-09T04:25:11.504Z,30.58
2016-04-09T04:26:11.461Z,30.58
2016-04-09T04:27:11.416Z,30.49
2016-04-09T04:28:11.356Z,30.78
2016-04-09T04:29:11.312Z,30.3
2016-04-09T04:30:11.269Z,30.2
2016-04-09T04:31:11.224Z,30.49
2016-04-09T04:32:11.180Z,30.49
2016-04-09T04:33:11.119Z,30.4
2016-04-09T04:34:11.075Z,30.3
2016-04-09T04:35:11.046Z,30.49
2016-04-09T04:36:13.987Z,30.3
2016-04-09T04:37:10.927Z,30.3
2016-04-09T04:38:10.882Z,30.4
2016-04-09T04:39:10.855Z,30.3
2016-04-09T04:40:10.795Z,30.58
2016-04-09T04:41:10.938Z,30.58
2016-04-09T04:42:10.691Z,30.4
2016-04-09T04:43:10.646Z,30.3
2016-04-09T04:44:10.602Z,30.49
2016-04-09T04:45:13.573Z,30.3
2016-04-09T04:46:13.514Z,30.3
2016-04-09T04:47:10.470Z,30.3
2016-04-09T04:48:10.269Z,30.49
2016-04-09T04:49:10.365Z,30.4
2016-04-09T04:50:10.322Z,30.11
2016-04-09T04:51:10.293Z,30.3
2016-04-09T04:52:10.218Z,30.2
2016-04-09T04:53:13.392Z,30.3
2016-04-09T04:54:10.114Z,30.11
2016-04-09T04:55:10.069Z,30.4
2016-04-09T04:56:10.025Z,30.11
2016-04-09T04:57:09.997Z,30.4
2016-04-09T04:58:09.936Z,30.49
2016-04-09T04:59:09.892Z,30.3
2016-04-09T05:00:09.833Z,30.01
2016-04-09T05:01:09.788Z,30.3
2016-04-09T05:02:09.745Z,30.3
2016-04-09T05:03:09.700Z,30.3
2016-04-09T05:04:09.672Z,30.4
2016-04-09T05:05:09.597Z,30.11
2016-04-09T05:06:09.552Z,30.49
2016-04-09T05:07:09.508Z,30.3
2016-04-09T05:08:09.448Z,30.4
2016-04-09T05:09:09.404Z,30.58
2016-04-09T05:10:09.360Z,30.2
2016-04-09T05:11:09.315Z,30.2
2016-04-09T05:12:09.287Z,30.4
2016-04-09T05:13:09.226Z,30.01
2016-04-09T05:14:09.167Z,30.3
2016-04-09T05:15:09.139Z,30.2
2016-04-09T05:16:09.267Z,30.4
2016-04-09T05:17:09.035Z,30.11
2016-04-09T05:18:08.990Z,30.11
2016-04-09T05:19:08.931Z,30.01
2016-04-09T05:20:08.886Z,30.11
2016-04-09T05:21:09.155Z,30.11
2016-04-09T05:22:08.798Z,30.3
2016-04-09T05:23:08.739Z,30.11
2016-04-09T05:24:08.694Z,30.11
2016-04-09T05:25:08.651Z,30.11
2016-04-09T05:26:08.606Z,30.4
2016-04-09T05:27:08.562Z,30.11
2016-04-09T05:28:08.815Z,30.11
2016-04-09T05:29:08.458Z,30.2
2016-04-09T05:30:08.430Z,30.2
2016-04-09T05:31:08.353Z,30.11
2016-04-09T05:32:08.325Z,30.01
2016-04-09T05:33:08.266Z,30.2
2016-04-09T05:34:08.221Z,30.2
2016-04-09T05:35:08.177Z,30.3
2016-04-09T05:36:08.148Z,30.3
2016-04-09T05:37:08.088Z,30.2
2016-04-09T05:38:11.247Z,30.3
2016-04-09T05:39:08.172Z,30.01
2016-04-09T05:40:10.957Z,30.2
2016-04-09T05:41:07.880Z,30.2
2016-04-09T05:42:07.852Z,30.01
2016-04-09T05:43:07.792Z,30.2
2016-04-09T05:44:07.748Z,30.11
2016-04-09T05:46:07.643Z,30.01
2016-04-09T05:47:07.615Z,29.91
2016-04-09T05:48:07.555Z,29.91
2016-04-09T05:49:07.511Z,29.82
2016-04-09T05:50:07.467Z,29.91
2016-04-09T05:51:07.407Z,29.82
2016-04-09T05:52:07.363Z,29.82
2016-04-09T05:53:07.319Z,30.01
2016-04-09T05:54:10.290Z,29.82
2016-04-09T05:55:07.231Z,29.91
2016-04-09T05:56:07.186Z,30.01
2016-04-09T05:57:07.143Z,30.01
2016-04-09T05:58:07.098Z,29.91
2016-04-09T05:59:07.054Z,30.2
2016-04-09T06:00:07.181Z,30.01
2016-04-09T06:01:06.934Z,30.4
2016-04-09T06:02:06.891Z,29.91
2016-04-09T06:03:06.846Z,30.01
2016-04-09T06:04:06.802Z,30.4
2016-04-09T06:05:06.757Z,30.01
2016-04-09T06:06:06.713Z,30.01
2016-04-09T06:07:06.654Z,30.01
2016-04-09T06:08:09.485Z,29.91
2016-04-09T06:09:09.550Z,30.3
2016-04-09T06:10:06.708Z,29.91
2016-04-09T06:11:06.461Z,30.3
2016-04-09T06:12:06.417Z,29.91
2016-04-09T06:13:06.373Z,29.82
2016-04-09T06:14:06.313Z,29.82
2016-04-09T06:15:06.284Z,29.82
2016-04-09T06:16:09.241Z,30.01
2016-04-09T06:17:06.181Z,30.3
2016-04-09T06:18:06.137Z,29.91
2016-04-09T06:19:06.093Z,30.01
2016-04-09T06:20:06.329Z,30.2
2016-04-09T06:21:05.972Z,30.01
2016-04-09T06:22:05.944Z,29.91
2016-04-09T06:23:05.884Z,29.72
2016-04-09T06:24:05.870Z,30.3
2016-04-09T06:25:05.827Z,30.2
2016-04-09T06:26:08.784Z,30.2
2016-04-09T06:27:05.708Z,30.01
2016-04-09T06:28:05.648Z,30.2
2016-04-09T06:29:05.619Z,30.3
2016-04-09T06:30:05.762Z,30.01
2016-04-09T06:31:05.515Z,30.3
2016-04-09T06:32:05.455Z,30.11
2016-04-09T06:33:08.442Z,30.01
2016-04-09T06:34:05.382Z,30.11
2016-04-09T06:35:05.323Z,30.11
2016-04-09T06:36:05.278Z,30.2
2016-04-09T06:37:05.219Z,30.01
2016-04-09T06:38:05.191Z,30.01
2016-04-09T06:39:05.146Z,30.01
2016-04-09T06:40:05.289Z,30.01
2016-04-09T06:41:05.041Z,30.01
2016-04-09T06:42:05.014Z,29.82
2016-04-09T06:43:04.969Z,30.11
2016-04-09T06:44:04.910Z,29.91
2016-04-09T06:45:04.849Z,30.01
2016-04-09T06:46:04.805Z,30.2
2016-04-09T06:47:04.792Z,30.3
2016-04-09T06:48:04.717Z,29.91
2016-04-09T06:49:07.876Z,29.82
2016-04-09T06:50:04.629Z,29.91
2016-04-09T06:51:04.569Z,30.01
2016-04-09T06:52:04.509Z,30.01
2016-04-09T06:53:04.465Z,30.2
2016-04-09T06:54:04.464Z,29.91
2016-04-09T06:55:04.463Z,30.11
2016-04-09T06:56:04.464Z,29.82
2016-04-09T06:57:04.449Z,30.01
2016-04-09T06:58:04.465Z,29.91
2016-04-09T06:59:04.453Z,30.2
2016-04-09T07:00:04.425Z,30.2
2016-04-09T07:01:04.381Z,29.91
2016-04-09T07:02:04.321Z,30.11
2016-04-09T07:03:04.293Z,30.2
2016-04-09T07:04:07.271Z,30.3
2016-04-09T07:05:04.232Z,30.2
2016-04-09T07:06:04.177Z,30.11
2016-04-09T07:07:04.124Z,29.91
2016-04-09T07:08:04.101Z,30.01
2016-04-09T07:09:07.059Z,29.82
2016-04-09T07:10:04.001Z,29.91
2016-04-09T07:11:03.944Z,30.01
2016-04-09T07:12:03.918Z,30.3
2016-04-09T07:13:03.860Z,30.11
2016-04-09T07:14:03.832Z,30.01
2016-04-09T07:15:03.774Z,30.11
2016-04-09T07:16:03.715Z,30.3
2016-04-09T07:17:03.656Z,30.01
2016-04-09T07:18:03.628Z,30.2
2016-04-09T07:19:03.678Z,30.2
2016-04-09T07:20:06.556Z,30.2
2016-04-09T07:21:03.495Z,29.91
2016-04-09T07:22:03.452Z,30.01
2016-04-09T07:23:03.391Z,30.3
2016-04-09T07:24:03.363Z,30.01
2016-04-09T07:25:03.287Z,30.01
2016-04-09T07:26:03.243Z,29.91
2016-04-09T07:27:03.183Z,29.91
2016-04-09T07:28:03.202Z,30.2
2016-04-09T07:29:03.111Z,30.2
2016-04-09T07:30:06.066Z,30.2
2016-04-09T07:31:03.022Z,30.2
2016-04-09T07:32:02.978Z,30.2
2016-04-09T07:33:02.918Z,30.2
2016-04-09T07:34:02.874Z,30.11
2016-04-09T07:35:02.814Z,30.11
2016-04-09T07:36:02.770Z,30.11
2016-04-09T07:37:02.773Z,30.01
2016-04-09T07:38:02.681Z,30.11
2016-04-09T07:39:02.637Z,30.3
2016-04-09T07:40:02.593Z,30.11
2016-04-09T07:41:02.518Z,30.01
2016-04-09T07:42:02.489Z,30.01
2016-04-09T07:43:02.445Z,30.2
2016-04-09T07:44:02.386Z,30.2
2016-04-09T07:45:02.545Z,30.11
2016-04-09T07:46:02.298Z,30.11
2016-04-09T07:47:02.253Z,30.49
2016-04-09T07:48:02.209Z,30.4
2016-04-09T07:49:02.445Z,30.3
2016-04-09T07:50:02.120Z,30.58
2016-04-09T07:51:02.061Z,30.3
2016-04-09T07:52:02.000Z,30.49
2016-04-09T07:53:01.972Z,30.4
2016-04-09T07:54:01.912Z,30.49
2016-04-09T07:55:01.868Z,30.58
2016-04-09T07:56:01.824Z,30.49
2016-04-09T07:57:01.983Z,30.3
2016-04-09T07:58:01.719Z,30.49
2016-04-09T07:59:01.676Z,30.4
2016-04-09T08:00:01.647Z,30.4
2016-04-09T08:01:01.587Z,30.2
2016-04-09T08:02:01.527Z,30.49
2016-04-09T08:03:01.482Z,30.4
2016-04-09T08:04:01.298Z,30.2
2016-04-09T08:05:01.598Z,30.3
2016-04-09T08:06:01.366Z,30.2
2016-04-09T08:07:01.307Z,30.3
2016-04-09T08:08:01.465Z,30.49
2016-04-09T08:09:01.203Z,30.68
2016-04-09T08:10:01.159Z,30.58
2016-04-09T08:11:01.115Z,30.11
2016-04-09T08:12:01.070Z,30.2
2016-04-09T08:13:01.026Z,30.68
2016-04-09T08:14:00.967Z,30.11
2016-04-09T08:15:00.922Z,30.58
2016-04-09T08:16:00.878Z,30.49
2016-04-09T08:17:00.818Z,30.58
2016-04-09T08:18:00.773Z,30.49
2016-04-09T08:19:00.730Z,30.3
2016-04-09T08:20:00.670Z,30.49
2016-04-09T08:21:00.625Z,30.58
2016-04-09T08:22:00.597Z,30.68
2016-04-09T08:23:00.537Z,30.58
2016-04-09T08:24:00.494Z,30.58
2016-04-09T08:25:00.449Z,30.3
2016-04-09T08:26:00.420Z,30.68
2016-04-09T08:27:00.345Z,30.3
2016-04-09T08:28:03.504Z,30.49
2016-04-09T08:29:00.460Z,30.58
2016-04-09T08:30:00.227Z,30.4
2016-04-09T08:31:00.183Z,30.68
2016-04-09T08:32:00.124Z,30.78
2016-04-09T08:33:00.064Z,30.49
2016-04-09T08:34:00.020Z,30.58
2016-04-09T08:34:59.976Z,30.58
2016-04-09T08:35:59.931Z,30.68
2016-04-09T08:36:59.872Z,30.58
2016-04-09T08:37:59.827Z,30.58
2016-04-09T08:38:59.784Z,30.58
2016-04-09T08:39:59.739Z,30.58
2016-04-09T08:40:59.695Z,30.58
2016-04-09T08:41:59.635Z,30.58
2016-04-09T08:42:59.591Z,30.87
2016-04-09T08:43:59.547Z,30.78
2016-04-09T08:44:59.503Z,30.58
2016-04-09T08:45:59.459Z,30.87
2016-04-09T08:46:59.398Z,30.58
2016-04-09T08:47:59.339Z,30.58
2016-04-09T08:48:59.201Z,30.87
2016-04-09T08:49:59.267Z,30.78
2016-04-09T08:50:59.222Z,30.87
2016-04-09T08:51:59.162Z,30.58
2016-04-09T08:52:59.103Z,30.78
2016-04-09T08:53:59.074Z,30.87
2016-04-09T08:54:59.030Z,30.87
2016-04-09T08:55:58.970Z,30.87
2016-04-09T08:56:58.910Z,30.58
2016-04-09T08:57:58.866Z,30.68
2016-04-09T08:58:58.822Z,30.87
2016-04-09T08:59:58.777Z,30.87
2016-04-09T09:00:58.748Z,30.78
2016-04-09T09:01:58.689Z,30.87
2016-04-09T09:02:58.644Z,30.78
2016-04-09T09:04:01.616Z,30.78
2016-04-09T09:04:58.525Z,30.87
2016-04-09T09:05:58.513Z,30.87
2016-04-09T09:06:58.765Z,30.97
2016-04-09T09:07:58.238Z,30.68
2016-04-09T09:08:58.349Z,30.68
2016-04-09T09:09:58.289Z,30.97
2016-04-09T09:11:01.511Z,30.87
2016-04-09T09:12:01.217Z,30.87
2016-04-09T09:12:58.157Z,30.97
2016-04-09T09:13:58.113Z,30.87
2016-04-09T09:14:58.053Z,31.07
2016-04-09T09:15:58.009Z,30.87
2016-04-09T09:16:58.183Z,31.07
2016-04-09T09:17:57.920Z,30.97
2016-04-09T09:18:57.954Z,30.68
2016-04-09T09:19:57.832Z,31.07
2016-04-09T09:20:58.006Z,30.78
2016-04-09T09:21:57.743Z,30.68
2016-04-09T09:22:57.699Z,31.07
2016-04-09T09:23:57.640Z,31.07
2016-04-09T09:24:57.579Z,30.87
2016-04-09T09:25:57.536Z,30.97
2016-04-09T09:26:57.507Z,30.87
2016-04-09T09:27:57.447Z,31.07
2016-04-09T09:28:57.403Z,31.16
2016-04-09T09:29:57.359Z,30.87
2016-04-09T09:30:57.315Z,30.78
2016-04-09T09:31:57.255Z,30.87
2016-04-09T09:32:57.226Z,30.87
2016-04-09T09:33:57.151Z,30.87
2016-04-09T09:35:00.122Z,30.87
2016-04-09T09:35:57.078Z,30.97
2016-04-09T09:36:57.019Z,31.07
2016-04-09T09:37:56.974Z,30.87
2016-04-09T09:38:56.930Z,30.97
2016-04-09T09:39:59.870Z,30.87
2016-04-09T09:40:56.826Z,30.97
2016-04-09T09:41:56.813Z,30.87
2016-04-09T09:42:56.738Z,31.07
2016-04-09T09:43:56.521Z,30.87
2016-04-09T09:44:56.852Z,30.97
2016-04-09T09:45:56.590Z,31.07
2016-04-09T09:46:56.546Z,30.97
2016-04-09T09:47:56.704Z,30.87
2016-04-09T09:48:56.477Z,30.97
2016-04-09T09:50:01.733Z,30.78
2016-04-09T09:50:56.389Z,31.07
2016-04-09T09:51:56.359Z,30.97
2016-04-09T09:52:57.749Z,31.07
2016-04-09T09:53:56.190Z,30.87
2016-04-09T09:54:56.365Z,30.97
2016-04-09T09:55:55.946Z,30.87
2016-04-09T09:56:56.058Z,30.78
2016-04-09T09:57:56.013Z,30.87
2016-04-09T09:58:55.969Z,30.87
2016-04-09T09:59:55.924Z,30.87
2016-04-09T10:00:55.882Z,31.07
2016-04-09T10:01:55.821Z,31.07
2016-04-09T10:02:55.778Z,31.07
2016-04-09T10:03:55.719Z,30.97
2016-04-09T10:04:55.674Z,30.87
2016-04-09T10:05:55.630Z,30.87
2016-04-09T10:06:55.616Z,30.87
2016-04-09T10:07:55.542Z,30.97
2016-04-09T10:08:55.497Z,31.07
2016-04-09T10:09:55.438Z,30.97
2016-04-09T10:10:55.394Z,30.87
2016-04-09T10:11:55.349Z,31.07
2016-04-09T10:12:55.304Z,30.87
2016-04-09T10:13:55.245Z,30.87
2016-04-09T10:14:55.217Z,30.97
2016-04-09T10:15:55.157Z,30.87
2016-04-09T10:16:55.112Z,31.07
2016-04-09T10:17:55.100Z,30.97
2016-04-09T10:18:55.024Z,30.87
2016-04-09T10:19:54.980Z,31.07
2016-04-09T10:20:54.921Z,31.07
2016-04-09T10:21:54.860Z,30.97
2016-04-09T10:22:54.816Z,31.16
2016-04-09T10:23:54.772Z,30.87
2016-04-09T10:24:54.740Z,31.07
2016-04-09T10:25:54.681Z,30.87
2016-04-09T10:26:54.637Z,30.87
2016-04-09T10:27:54.624Z,30.78
2016-04-09T10:28:54.534Z,30.87
2016-04-09T10:29:54.489Z,31.07
2016-04-09T10:30:54.553Z,31.07
2016-04-09T10:31:54.400Z,31.07
2016-04-09T10:32:54.387Z,30.87
2016-04-09T10:33:54.343Z,31.16
2016-04-09T10:34:54.252Z,31.16
2016-04-09T10:35:54.223Z,30.97
2016-04-09T10:36:54.258Z,31.07
2016-04-09T10:37:57.107Z,30.87
2016-04-09T10:38:54.076Z,30.97
2016-04-09T10:39:54.016Z,30.97
2016-04-09T10:40:53.971Z,30.87
2016-04-09T10:41:53.912Z,30.87
2016-04-09T10:42:53.883Z,30.97
2016-04-09T10:43:53.824Z,30.68
2016-04-09T10:44:56.766Z,31.07
2016-04-09T10:45:53.719Z,30.87
2016-04-09T10:46:53.707Z,31.07
2016-04-09T10:47:53.646Z,30.97
2016-04-09T10:48:53.587Z,30.97
2016-04-09T10:49:53.543Z,30.97
2016-04-09T10:50:53.483Z,31.07
2016-04-09T10:51:53.439Z,31.07
2016-04-09T10:52:53.410Z,30.87
2016-04-09T10:53:53.350Z,30.97
2016-04-09T10:54:53.524Z,30.97
2016-04-09T10:55:53.262Z,30.87
2016-04-09T10:56:53.187Z,30.87
2016-04-09T10:57:53.158Z,30.97
2016-04-09T10:58:53.114Z,30.87
2016-04-09T10:59:53.069Z,30.97
2016-04-09T11:00:53.009Z,30.78
2016-04-09T11:01:52.965Z,30.97
2016-04-09T11:02:52.937Z,30.87
2016-04-09T11:03:52.862Z,31.07
2016-04-09T11:04:52.834Z,31.07
2016-04-09T11:05:52.789Z,30.68
2016-04-09T11:06:52.744Z,30.87
2016-04-09T11:07:52.684Z,30.97
2016-04-09T11:08:52.641Z,30.78
2016-04-09T11:09:52.581Z,30.78
2016-04-09T11:10:52.552Z,30.97
2016-04-09T11:11:52.493Z,30.87
2016-04-09T11:12:52.447Z,30.87
2016-04-09T11:13:52.388Z,30.87
2016-04-09T11:14:52.360Z,30.97
2016-04-09T11:15:52.316Z,30.87
2016-04-09T11:16:52.256Z,30.97
2016-04-09T11:17:52.243Z,30.78
2016-04-09T11:18:52.152Z,30.87
2016-04-09T11:19:52.123Z,30.78
2016-04-09T11:20:52.063Z,30.87
2016-04-09T11:21:52.019Z,30.87
2016-04-09T11:22:51.975Z,30.78
2016-04-09T11:23:52.118Z,30.97
2016-04-09T11:24:51.871Z,30.68
2016-04-09T11:25:51.827Z,30.97
2016-04-09T11:26:51.971Z,30.97
2016-04-09T11:27:51.723Z,31.07
2016-04-09T11:28:51.679Z,30.97
2016-04-09T11:29:51.635Z,31.07
2016-04-09T11:30:51.606Z,30.87
2016-04-09T11:31:51.578Z,30.87
2016-04-09T11:32:51.518Z,30.97
2016-04-09T11:33:51.442Z,30.97
2016-04-09T11:34:51.398Z,30.97
2016-04-09T11:35:51.369Z,30.97
2016-04-09T11:36:51.295Z,30.97
2016-04-09T11:37:51.250Z,30.97
2016-04-09T11:38:51.205Z,30.97
2016-04-09T11:39:51.239Z,30.87
2016-04-09T11:40:51.102Z,30.97
2016-04-09T11:41:51.072Z,30.87
2016-04-09T11:42:51.028Z,31.07
2016-04-09T11:43:50.969Z,31.07
2016-04-09T11:44:50.925Z,31.26
2016-04-09T11:45:50.865Z,31.16
2016-04-09T11:46:50.836Z,31.26
2016-04-09T11:47:50.792Z,31.16
2016-04-09T11:48:50.732Z,31.16
2016-04-09T11:49:50.688Z,31.16
2016-04-09T11:50:50.644Z,31.16
2016-04-09T11:51:50.584Z,30.97
2016-04-09T11:52:50.555Z,30.87
2016-04-09T11:53:50.683Z,31.07
2016-04-09T11:54:50.498Z,31.07
2016-04-09T11:55:50.392Z,30.97
2016-04-09T11:56:50.348Z,30.87
2016-04-09T11:57:50.303Z,31.16
2016-04-09T11:58:50.259Z,30.97
2016-04-09T11:59:50.215Z,30.97
2016-04-09T12:00:50.156Z,30.78
2016-04-09T12:01:50.329Z,30.97
2016-04-09T12:02:50.051Z,30.97
2016-04-09T12:03:50.023Z,31.07
2016-04-09T12:04:49.962Z,31.07
2016-04-09T12:05:49.919Z,30.78
2016-04-09T12:06:49.875Z,31.07
2016-04-09T12:07:49.814Z,30.97
2016-04-09T12:08:49.786Z,30.87
2016-04-09T12:09:49.726Z,30.87
2016-04-09T12:10:49.666Z,30.87
2016-04-09T12:11:49.638Z,30.97
2016-04-09T12:12:49.594Z,30.97
2016-04-09T12:13:49.549Z,30.78
2016-04-09T12:14:49.489Z,30.87
2016-04-09T12:15:49.430Z,30.68
2016-04-09T12:16:49.417Z,30.87
2016-04-09T12:17:49.341Z,30.78
2016-04-09T12:18:49.344Z,30.78
2016-04-09T12:19:49.363Z,30.58
2016-04-09T12:20:49.209Z,30.58
2016-04-09T12:21:49.352Z,30.78
2016-04-09T12:22:49.105Z,30.78
2016-04-09T12:23:49.060Z,30.87
2016-04-09T12:24:49.016Z,30.58
2016-04-09T12:25:48.973Z,30.87
2016-04-09T12:26:48.928Z,30.78
2016-04-09T12:27:48.884Z,30.78
2016-04-09T12:28:48.840Z,30.58
2016-04-09T12:29:48.796Z,30.58
2016-04-09T12:30:48.939Z,30.58
2016-04-09T12:31:48.692Z,30.58
2016-04-09T12:32:48.632Z,30.68
2016-04-09T12:33:48.620Z,30.68
2016-04-09T12:34:48.591Z,30.58
2016-04-09T12:35:48.546Z,30.58
2016-04-09T12:36:48.643Z,30.58
2016-04-09T12:37:48.395Z,30.58
2016-04-09T12:38:48.336Z,30.87
2016-04-09T12:39:48.307Z,30.58
2016-04-09T12:40:51.264Z,30.58
2016-04-09T12:41:48.406Z,30.58
2016-04-09T12:42:48.158Z,30.58
2016-04-09T12:43:48.130Z,30.68
2016-04-09T12:44:48.070Z,30.58
2016-04-09T12:45:48.230Z,30.58
2016-04-09T12:46:47.967Z,30.58
2016-04-09T12:47:47.923Z,30.58
2016-04-09T12:48:47.894Z,30.68
2016-04-09T12:49:47.708Z,30.87
2016-04-09T12:50:47.821Z,30.58
2016-04-09T12:51:47.746Z,30.58
2016-04-09T12:52:47.686Z,30.78
2016-04-09T12:53:47.642Z,30.78
2016-04-09T12:54:47.583Z,30.68
2016-04-09T12:55:47.538Z,30.68
2016-04-09T12:56:47.493Z,30.68